createdAt,value
2023-05-15T00:01:18.858Z,10.60
2023-05-15T00:03:46.155Z,10.70
2023-05-15T00:06:13.630Z,10.60
2023-05-15T00:08:41.016Z,10.70
2023-05-15T00:11:08.323Z,10.70
2023-05-15T00:13:35.626Z,10.70
2023-05-15T00:16:02.968Z,10.70
2023-05-15T00:18:30.096Z,10.70
2023-05-15T00:20:57.438Z,10.60
2023-05-15T00:23:24.622Z,10.60
2023-05-15T00:25:52.590Z,10.60
2023-05-15T00:28:19.783Z,10.60
2023-05-15T00:30:47.132Z,10.60
2023-05-15T00:33:14.239Z,10.60
2023-05-15T00:35:41.496Z,10.60
2023-05-15T00:38:08.582Z,10.60
2023-05-15T00:40:38.955Z,10.60
2023-05-15T00:43:07.045Z,10.60
2023-05-15T00:45:34.755Z,10.60
2023-05-15T00:48:02.896Z,10.60
2023-05-15T00:50:32.226Z,10.60
2023-05-15T00:53:00.671Z,10.50
2023-05-15T00:55:29.593Z,10.50
2023-05-15T00:57:58.369Z,10.50
2023-05-15T01:00:26.333Z,10.50
2023-05-15T01:02:54.764Z,10.50
2023-05-15T01:05:22.424Z,10.50
2023-05-15T01:07:57.795Z,10.50
2023-05-15T01:10:25.528Z,10.40
2023-05-15T01:12:55.726Z,10.50
2023-05-15T01:15:24.692Z,10.50
2023-05-15T01:17:52.760Z,10.50
2023-05-15T01:20:21.570Z,10.50
2023-05-15T01:23:18.338Z,10.50
2023-05-15T01:26:15.344Z,10.50
2023-05-15T01:29:01.426Z,10.50
2023-05-15T01:31:33.083Z,10.50
2023-05-15T01:34:03.014Z,10.50
2023-05-15T01:36:47.215Z,10.50
2023-05-15T01:39:20.047Z,10.40
2023-05-15T01:41:53.163Z,10.40
2023-05-15T01:44:34.306Z,10.40
2023-05-15T01:47:12.812Z,10.50
2023-05-15T01:49:40.627Z,10.50
2023-05-15T01:52:14.648Z,10.40
2023-05-15T01:54:43.104Z,10.40
2023-05-15T01:57:11.711Z,10.40
2023-05-15T01:59:46.863Z,10.40
2023-05-15T02:02:15.494Z,10.40
2023-05-15T02:04:44.395Z,10.40
2023-05-15T02:07:13.956Z,10.40
2023-05-15T02:09:42.645Z,10.30
2023-05-15T02:12:11.672Z,10.40
2023-05-15T02:14:41.383Z,10.30
2023-05-15T02:17:08.993Z,10.30
2023-05-15T02:19:36.313Z,10.30
2023-05-15T02:22:03.765Z,10.30
2023-05-15T02:24:31.108Z,10.30
2023-05-15T02:27:25.083Z,10.30
2023-05-15T02:30:16.692Z,10.30
2023-05-15T02:32:49.624Z,10.20
2023-05-15T02:35:43.305Z,10.20
2023-05-15T02:38:16.292Z,10.10
2023-05-15T02:40:45.705Z,10.10
2023-05-15T02:43:15.149Z,10.10
2023-05-15T02:45:43.004Z,10.10
2023-05-15T02:48:10.680Z,10.00
2023-05-15T02:50:38.098Z,10.00
2023-05-15T02:53:07.529Z,10.00
2023-05-15T02:55:35.150Z,9.90
2023-05-15T02:58:03.729Z,9.90
2023-05-15T03:00:30.997Z,9.90
2023-05-15T03:02:59.246Z,9.80
2023-05-15T03:05:26.876Z,9.80
2023-05-15T03:07:54.784Z,9.80
2023-05-15T03:10:23.915Z,9.70
2023-05-15T03:12:51.142Z,9.60
2023-05-15T03:15:19.299Z,9.40
2023-05-15T03:17:46.581Z,9.40
2023-05-15T03:20:14.627Z,9.50
2023-05-15T03:22:42.420Z,9.50
2023-05-15T03:25:12.970Z,9.40
2023-05-15T03:27:40.187Z,9.40
2023-05-15T03:30:08.013Z,9.40
2023-05-15T03:32:35.512Z,9.40
2023-05-15T03:35:02.916Z,9.30
2023-05-15T03:37:30.117Z,9.30
2023-05-15T03:39:58.338Z,9.30
2023-05-15T03:42:25.720Z,9.20
2023-05-15T03:44:52.931Z,9.20
2023-05-15T03:47:20.238Z,9.20
2023-05-15T03:49:47.559Z,9.10
2023-05-15T03:52:14.901Z,9.10
2023-05-15T03:54:42.960Z,9.10
2023-05-15T03:57:10.369Z,9.10
2023-05-15T03:59:37.560Z,9.10
2023-05-15T04:02:05.757Z,9.10
2023-05-15T04:04:33.331Z,9.10
2023-05-15T04:07:00.840Z,9.10
2023-05-15T04:09:28.075Z,9.00
2023-05-15T04:11:56.673Z,9.00
2023-05-15T04:14:23.821Z,9.00
2023-05-15T04:16:50.980Z,9.00
2023-05-15T04:19:18.302Z,9.10
2023-05-15T04:21:45.662Z,9.10
2023-05-15T04:24:13.047Z,9.10
2023-05-15T04:26:40.193Z,9.10
2023-05-15T04:29:07.512Z,9.10
2023-05-15T04:31:35.296Z,9.10
2023-05-15T04:34:08.726Z,9.10
2023-05-15T04:36:36.129Z,9.10
2023-05-15T04:39:03.483Z,9.10
2023-05-15T04:41:30.587Z,9.20
2023-05-15T04:43:57.827Z,9.20
2023-05-15T04:46:25.317Z,9.20
2023-05-15T04:48:53.147Z,9.30
2023-05-15T04:51:20.308Z,9.20
2023-05-15T04:53:48.793Z,9.30
2023-05-15T04:56:15.911Z,9.30
2023-05-15T04:58:43.027Z,9.30
2023-05-15T05:01:10.544Z,9.30
2023-05-15T05:03:37.712Z,9.30
2023-05-15T05:06:05.193Z,9.30
2023-05-15T05:08:32.304Z,9.20
2023-05-15T05:10:59.632Z,9.20
2023-05-15T05:13:26.980Z,9.30
2023-05-15T05:15:54.182Z,9.30
2023-05-15T05:18:21.543Z,9.30
2023-05-15T05:20:49.712Z,9.40
2023-05-15T05:23:18.242Z,9.40
2023-05-15T05:25:45.387Z,9.40
2023-05-15T05:28:13.003Z,9.50
2023-05-15T05:30:40.197Z,9.50
2023-05-15T05:33:07.942Z,9.50
2023-05-15T05:35:35.172Z,9.60
2023-05-15T05:38:02.363Z,9.70
2023-05-15T05:40:29.503Z,9.70
2023-05-15T05:43:00.713Z,9.70
2023-05-15T05:45:28.752Z,9.80
2023-05-15T05:47:56.624Z,9.80
2023-05-15T05:50:24.455Z,9.80
2023-05-15T05:52:51.753Z,9.80
2023-05-15T05:55:19.073Z,9.80
2023-05-15T05:57:46.318Z,9.90
2023-05-15T06:00:14.453Z,10.00
2023-05-15T06:02:41.817Z,10.00
2023-05-15T06:05:09.328Z,10.00
2023-05-15T06:07:36.591Z,10.10
2023-05-15T06:10:04.142Z,10.20
2023-05-15T06:12:31.312Z,10.20
2023-05-15T06:14:58.561Z,10.30
2023-05-15T06:17:26.028Z,10.30
2023-05-15T06:19:54.328Z,10.40
2023-05-15T06:22:21.966Z,10.50
2023-05-15T06:24:49.205Z,10.60
2023-05-15T06:27:16.528Z,10.80
2023-05-15T06:29:43.733Z,10.90
2023-05-15T06:32:10.889Z,11.00
2023-05-15T06:34:38.071Z,11.00
2023-05-15T06:37:05.448Z,11.10
2023-05-15T06:39:32.641Z,11.20
2023-05-15T06:42:01.625Z,11.30
2023-05-15T06:44:31.376Z,11.30
2023-05-15T06:46:59.211Z,11.40
2023-05-15T06:49:26.926Z,11.40
2023-05-15T06:51:55.277Z,11.40
2023-05-15T06:54:22.600Z,11.50
2023-05-15T06:56:49.842Z,11.60
2023-05-15T06:59:17.006Z,11.70
2023-05-15T07:01:44.416Z,11.90
2023-05-15T07:04:14.549Z,12.10
2023-05-15T07:06:41.833Z,12.10
2023-05-15T07:09:10.291Z,12.30
2023-05-15T07:11:39.051Z,12.30
2023-05-15T07:14:07.026Z,12.40
2023-05-15T07:16:34.226Z,12.50
2023-05-15T07:19:01.866Z,12.50
2023-05-15T07:21:29.211Z,12.60
2023-05-15T07:23:56.703Z,12.60
2023-05-15T07:26:34.235Z,12.70
2023-05-15T07:29:06.295Z,12.80
2023-05-15T07:31:33.985Z,12.90
2023-05-15T07:34:01.252Z,12.90
2023-05-15T07:36:28.653Z,12.90
2023-05-15T07:38:56.101Z,13.10
2023-05-15T07:41:23.308Z,13.20
2023-05-15T07:43:50.472Z,13.30
2023-05-15T07:46:17.788Z,13.30
2023-05-15T07:48:45.081Z,13.40
2023-05-15T07:51:12.273Z,13.50
2023-05-15T07:53:39.560Z,13.50
2023-05-15T07:56:06.898Z,13.60
2023-05-15T07:58:37.134Z,13.70
2023-05-15T08:01:05.022Z,13.80
2023-05-15T08:03:32.399Z,13.90
2023-05-15T08:06:00.965Z,14.00
2023-05-15T08:08:28.261Z,14.00
2023-05-15T08:10:56.933Z,14.00
2023-05-15T08:13:25.083Z,14.10
2023-05-15T08:15:52.277Z,14.10
2023-05-15T08:18:19.470Z,14.20
2023-05-15T08:20:46.671Z,14.30
2023-05-15T08:23:13.980Z,14.60
2023-05-15T08:25:41.257Z,14.60
2023-05-15T08:28:08.391Z,14.60
2023-05-15T08:30:36.224Z,14.60
2023-05-15T08:33:03.717Z,14.60
2023-05-15T08:35:30.936Z,14.60
2023-05-15T08:37:59.302Z,14.70
2023-05-15T08:43:10.904Z,14.70
2023-05-15T08:45:38.174Z,14.80
2023-05-15T08:48:16.786Z,14.90
2023-05-15T08:50:44.667Z,15.00
2023-05-15T08:53:15.104Z,15.20
2023-05-15T08:55:42.804Z,15.30
2023-05-15T08:58:10.399Z,15.30
2023-05-15T09:00:38.024Z,15.30
2023-05-15T09:03:05.852Z,15.40
2023-05-15T09:05:33.632Z,15.50
2023-05-15T09:08:04.299Z,15.50
2023-05-15T09:10:33.153Z,15.50
2023-05-15T09:13:02.484Z,15.60
2023-05-15T09:15:31.104Z,15.50
2023-05-15T09:17:59.332Z,15.60
2023-05-15T09:20:38.872Z,15.70
2023-05-15T09:23:21.789Z,15.80
2023-05-15T09:25:53.416Z,15.80
2023-05-15T09:28:26.662Z,15.90
2023-05-15T09:31:05.204Z,16.10
2023-05-15T09:33:34.343Z,16.30
2023-05-15T09:36:03.442Z,16.50
2023-05-15T09:38:33.308Z,16.50
2023-05-15T09:41:06.744Z,16.50
2023-05-15T09:43:35.651Z,16.50
2023-05-15T09:46:03.176Z,16.70
2023-05-15T09:48:31.841Z,16.70
2023-05-15T09:50:59.337Z,16.70
2023-05-15T09:53:28.362Z,16.70
2023-05-15T09:55:56.285Z,16.70
2023-05-15T09:58:23.841Z,16.70
2023-05-15T10:00:51.040Z,16.80
2023-05-15T10:03:22.570Z,16.70
2023-05-15T10:05:49.936Z,16.80
2023-05-15T10:08:28.409Z,17.10
2023-05-15T10:10:59.717Z,17.10
2023-05-15T10:13:28.366Z,17.10
2023-05-15T10:15:57.121Z,17.20
2023-05-15T10:18:28.202Z,17.20
2023-05-15T10:20:58.057Z,17.40
2023-05-15T10:23:25.868Z,17.20
2023-05-15T10:26:03.402Z,17.10
2023-05-15T10:28:31.609Z,17.20
2023-05-15T10:31:01.806Z,17.30
2023-05-15T10:33:30.272Z,17.40
2023-05-15T10:35:58.972Z,17.60
2023-05-15T10:38:27.406Z,17.70
2023-05-15T10:41:09.085Z,17.70
2023-05-15T10:43:44.335Z,17.80
2023-05-15T10:46:12.249Z,17.80
2023-05-15T10:48:40.699Z,17.90
2023-05-15T10:51:18.807Z,18.00
2023-05-15T10:53:46.315Z,18.10
2023-05-15T10:56:16.892Z,18.20
2023-05-15T10:58:51.770Z,18.10
2023-05-15T11:01:28.742Z,18.20
2023-05-15T11:04:07.791Z,18.20
2023-05-15T11:06:35.691Z,18.20
2023-05-15T11:09:21.883Z,18.10
2023-05-15T11:11:52.333Z,18.10
2023-05-15T11:14:20.416Z,18.10
2023-05-15T11:16:53.986Z,18.10
2023-05-15T11:19:33.595Z,18.20
2023-05-15T11:22:20.131Z,18.50
2023-05-15T11:25:09.362Z,18.60
2023-05-15T11:27:44.890Z,18.70
2023-05-15T11:30:25.167Z,18.70
2023-05-15T11:33:11.765Z,18.70
2023-05-15T11:35:46.697Z,18.70
2023-05-15T11:38:20.203Z,18.80
2023-05-15T11:41:00.387Z,18.90
2023-05-15T11:43:29.627Z,19.10
2023-05-15T11:46:09.115Z,19.20
2023-05-15T11:48:47.956Z,19.40
2023-05-15T11:51:23.322Z,19.40
2023-05-15T11:53:51.550Z,19.40
2023-05-15T11:56:28.568Z,19.50
2023-05-15T11:58:59.731Z,19.40
2023-05-15T12:01:27.016Z,19.60
2023-05-15T12:03:55.128Z,19.60
2023-05-15T12:06:23.030Z,19.70
2023-05-15T12:08:53.788Z,19.70
2023-05-15T12:11:25.336Z,19.80
2023-05-15T12:13:56.213Z,19.90
2023-05-15T12:16:29.911Z,20.00
2023-05-15T12:18:57.842Z,20.10
2023-05-15T12:21:27.511Z,20.10
2023-05-15T12:26:27.501Z,20.30
2023-05-15T12:28:56.089Z,20.30
2023-05-15T12:31:23.700Z,20.10
2023-05-15T12:33:51.036Z,20.00
2023-05-15T12:36:21.170Z,20.10
2023-05-15T12:38:49.277Z,20.20
2023-05-15T12:41:16.455Z,20.20
2023-05-15T12:43:43.864Z,20.20
2023-05-15T12:46:14.506Z,20.20
2023-05-15T12:48:42.009Z,20.20
2023-05-15T12:51:09.601Z,20.30
2023-05-15T12:53:39.638Z,20.30
2023-05-15T12:56:08.477Z,20.50
2023-05-15T12:58:36.224Z,20.50
2023-05-15T13:01:04.240Z,20.40
2023-05-15T13:03:32.071Z,20.50
2023-05-15T13:06:01.715Z,20.60
2023-05-15T13:08:30.177Z,20.60
2023-05-15T13:10:59.253Z,20.60
2023-05-15T13:13:43.229Z,20.60
2023-05-15T13:16:29.840Z,20.60
2023-05-15T13:19:00.560Z,20.60
2023-05-15T13:21:28.556Z,20.50
2023-05-15T13:23:55.713Z,20.60
2023-05-15T13:26:24.033Z,20.70
2023-05-15T13:28:51.226Z,20.70
2023-05-15T13:31:18.469Z,20.80
2023-05-15T13:33:45.830Z,20.90
2023-05-15T13:36:13.002Z,20.90
2023-05-15T13:38:40.491Z,20.90
2023-05-15T13:41:07.725Z,20.90
2023-05-15T13:43:34.969Z,20.80
2023-05-15T13:46:02.236Z,20.80
2023-05-15T13:48:29.354Z,20.80
2023-05-15T13:50:57.644Z,20.90
2023-05-15T13:53:24.861Z,20.90
2023-05-15T13:55:52.053Z,21.00
2023-05-15T13:58:19.386Z,20.90
2023-05-15T14:00:48.515Z,20.90
2023-05-15T14:03:15.851Z,20.90
2023-05-15T14:05:43.176Z,20.90
2023-05-15T14:08:10.355Z,20.90
2023-05-15T14:10:37.769Z,20.80
2023-05-15T14:13:05.176Z,20.90
2023-05-15T14:15:32.496Z,20.90
2023-05-15T14:17:59.686Z,20.90
2023-05-15T14:20:27.488Z,20.90
2023-05-15T14:22:54.802Z,20.80
2023-05-15T14:25:22.424Z,20.70
2023-05-15T14:27:49.534Z,20.60
2023-05-15T14:30:16.910Z,20.60
2023-05-15T14:32:44.144Z,20.50
2023-05-15T14:35:11.469Z,20.50
2023-05-15T14:37:38.704Z,20.50
2023-05-15T14:40:08.181Z,20.60
2023-05-15T14:42:35.378Z,20.60
2023-05-15T14:45:02.840Z,20.50
2023-05-15T14:47:30.181Z,20.50
2023-05-15T14:49:57.573Z,20.50
2023-05-15T14:52:26.409Z,20.50
2023-05-15T14:55:07.711Z,20.60
2023-05-15T14:57:36.459Z,20.70
2023-05-15T15:00:06.407Z,20.60
2023-05-15T15:02:34.264Z,20.70
2023-05-15T15:05:01.553Z,20.60
2023-05-15T15:07:30.821Z,20.60
2023-05-15T15:09:58.158Z,20.60
2023-05-15T15:12:26.348Z,20.60
2023-05-15T15:14:55.934Z,20.60
2023-05-15T15:17:23.107Z,20.40
2023-05-15T15:19:50.389Z,20.40
2023-05-15T15:22:17.901Z,20.30
2023-05-15T15:24:45.004Z,20.30
2023-05-15T15:27:12.166Z,20.20
2023-05-15T15:29:39.406Z,20.20
2023-05-15T15:32:07.001Z,20.20
2023-05-15T15:34:34.473Z,20.20
2023-05-15T15:37:01.598Z,20.20
2023-05-15T15:39:28.943Z,20.20
2023-05-15T15:41:56.214Z,20.00
2023-05-15T15:44:24.358Z,20.00
2023-05-15T15:46:51.615Z,20.00
2023-05-15T15:49:19.062Z,20.00
2023-05-15T15:51:46.271Z,20.10
2023-05-15T15:54:13.539Z,20.10
2023-05-15T15:56:41.507Z,20.10
2023-05-15T15:59:09.126Z,20.10
2023-05-15T16:01:36.516Z,20.00
2023-05-15T16:04:04.085Z,20.10
2023-05-15T16:06:32.932Z,20.10
2023-05-15T16:09:00.806Z,19.90
2023-05-15T16:11:29.641Z,19.80
2023-05-15T16:13:56.832Z,19.80
2023-05-15T16:16:24.643Z,19.80
2023-05-15T16:18:52.675Z,19.70
2023-05-15T16:21:20.173Z,19.80
2023-05-15T16:23:47.876Z,19.80
2023-05-15T16:26:15.644Z,19.80
2023-05-15T16:28:43.274Z,19.60
2023-05-15T16:31:11.203Z,19.50
2023-05-15T16:33:39.027Z,19.50
2023-05-15T16:36:07.139Z,19.60
2023-05-15T16:38:35.069Z,19.60
2023-05-15T16:41:03.051Z,19.60
2023-05-15T16:43:31.000Z,19.50
2023-05-15T16:45:59.709Z,19.40
2023-05-15T16:48:28.650Z,19.50
2023-05-15T16:50:56.772Z,19.40
2023-05-15T16:53:24.926Z,19.40
2023-05-15T16:55:53.539Z,19.40
2023-05-15T16:58:21.889Z,19.40
2023-05-15T17:00:49.848Z,19.40
2023-05-15T17:03:19.563Z,19.40
2023-05-15T17:05:48.091Z,19.30
2023-05-15T17:08:16.083Z,19.30
2023-05-15T17:10:44.171Z,19.20
2023-05-15T17:13:12.093Z,19.20
2023-05-15T17:15:40.339Z,19.20
2023-05-15T17:18:08.434Z,19.20
2023-05-15T17:20:36.673Z,19.20
2023-05-15T17:23:04.631Z,19.20
2023-05-15T17:25:32.689Z,19.10
2023-05-15T17:28:00.741Z,19.00
2023-05-15T17:30:28.792Z,18.90
2023-05-15T17:32:56.932Z,18.90
2023-05-15T17:35:25.253Z,18.90
2023-05-15T17:37:53.318Z,18.90
2023-05-15T17:40:21.544Z,18.90
2023-05-15T17:42:49.468Z,18.80
2023-05-15T17:45:17.701Z,18.80
2023-05-15T17:47:45.859Z,18.70
2023-05-15T17:50:14.076Z,18.70
2023-05-15T17:52:41.985Z,18.60
2023-05-15T17:55:10.324Z,18.50
2023-05-15T17:57:38.458Z,18.50
2023-05-15T18:00:08.004Z,18.40
2023-05-15T18:02:39.998Z,18.30
2023-05-15T18:05:09.174Z,18.20
2023-05-15T18:07:37.273Z,18.10
2023-05-15T18:10:05.799Z,18.00
2023-05-15T18:12:33.904Z,17.90
2023-05-15T18:15:02.011Z,17.90
2023-05-15T18:17:30.037Z,17.80
2023-05-15T18:19:58.106Z,17.70
2023-05-15T18:22:26.192Z,17.70
2023-05-15T18:24:54.325Z,17.60
2023-05-15T18:27:22.482Z,17.50
2023-05-15T18:29:50.844Z,17.30
2023-05-15T18:32:20.139Z,17.10
2023-05-15T18:34:48.532Z,17.00
2023-05-15T18:37:16.712Z,17.00
2023-05-15T18:39:45.042Z,16.90
2023-05-15T18:42:13.145Z,16.70
2023-05-15T18:44:43.085Z,16.70
2023-05-15T18:47:13.351Z,16.50
2023-05-15T18:49:41.834Z,16.50
2023-05-15T18:52:10.152Z,16.50
2023-05-15T18:54:42.203Z,16.40
2023-05-15T18:57:10.368Z,16.40
2023-05-15T18:59:38.716Z,16.20
2023-05-15T19:02:06.874Z,16.10
2023-05-15T19:04:35.010Z,15.90
2023-05-15T19:07:05.113Z,15.90
2023-05-15T19:09:33.475Z,15.80
2023-05-15T19:12:02.263Z,15.80
2023-05-15T19:14:30.467Z,15.70
2023-05-15T19:16:58.748Z,15.60
2023-05-15T19:19:27.953Z,15.50
2023-05-15T19:21:56.231Z,15.40
2023-05-15T19:24:24.380Z,15.20
2023-05-15T19:26:52.665Z,15.20
2023-05-15T19:29:22.785Z,15.10
2023-05-15T19:31:51.100Z,15.10
2023-05-15T19:34:19.508Z,14.90
2023-05-15T19:36:51.458Z,14.90
2023-05-15T19:39:19.582Z,15.00
2023-05-15T19:41:47.828Z,14.90
2023-05-15T19:44:15.818Z,14.90
2023-05-15T19:46:45.813Z,14.80
2023-05-15T19:49:14.466Z,14.80
2023-05-15T19:51:43.110Z,14.70
2023-05-15T19:54:12.062Z,14.60
2023-05-15T19:56:40.512Z,14.60
2023-05-15T19:59:09.013Z,14.60
2023-05-15T20:01:37.348Z,14.60
2023-05-15T20:04:05.702Z,14.50
2023-05-15T20:06:34.011Z,14.40
2023-05-15T20:09:02.720Z,14.30
2023-05-15T20:11:31.075Z,14.20
2023-05-15T20:13:59.039Z,14.20
2023-05-15T20:16:27.310Z,14.20
2023-05-15T20:18:57.342Z,14.20
2023-05-15T20:21:25.431Z,14.20
2023-05-15T20:23:53.296Z,14.10
2023-05-15T20:26:23.010Z,14.10
2023-05-15T20:28:51.136Z,14.00
2023-05-15T20:31:19.459Z,14.00
2023-05-15T20:33:47.445Z,13.80
2023-05-15T20:36:17.223Z,13.70
2023-05-15T20:38:45.696Z,13.80
2023-05-15T20:41:14.013Z,13.80
2023-05-15T20:43:42.221Z,13.80
2023-05-15T20:46:10.414Z,13.70
2023-05-15T20:48:38.296Z,13.70
2023-05-15T20:51:06.342Z,13.70
2023-05-15T20:53:34.244Z,13.70
2023-05-15T20:56:02.232Z,13.60
2023-05-15T20:58:30.243Z,13.40
2023-05-15T21:01:00.991Z,13.30
2023-05-15T21:03:29.390Z,13.30
2023-05-15T21:05:57.450Z,13.30
2023-05-15T21:08:25.010Z,13.30
2023-05-15T21:10:55.481Z,13.30
2023-05-15T21:13:22.819Z,13.30
2023-05-15T21:15:51.080Z,13.30
2023-05-15T21:18:18.991Z,13.30
2023-05-15T21:20:46.205Z,13.30
2023-05-15T21:23:13.786Z,13.30
2023-05-15T21:25:42.888Z,13.20
2023-05-15T21:28:10.789Z,13.20
2023-05-15T21:30:38.040Z,13.10
2023-05-15T21:33:05.453Z,13.10
2023-05-15T21:35:32.869Z,13.10
2023-05-15T21:38:00.520Z,13.10
2023-05-15T21:40:28.199Z,13.10
2023-05-15T21:42:55.986Z,13.10
2023-05-15T21:45:23.312Z,13.00
2023-05-15T21:47:50.647Z,13.00
2023-05-15T21:50:17.917Z,12.90
2023-05-15T21:52:45.104Z,12.80
2023-05-15T21:55:12.320Z,12.80
2023-05-15T21:57:39.695Z,12.90
2023-05-15T22:00:08.411Z,12.90
2023-05-15T22:02:36.027Z,12.80
2023-05-15T22:05:04.227Z,12.80
2023-05-15T22:07:31.480Z,12.80
2023-05-15T22:09:58.714Z,12.80
2023-05-15T22:12:26.774Z,12.70
2023-05-15T22:14:58.968Z,12.70
2023-05-15T22:17:30.753Z,12.70
2023-05-15T22:20:07.730Z,12.70
2023-05-15T22:22:36.127Z,12.70
2023-05-15T22:25:04.051Z,12.70
2023-05-15T22:27:32.008Z,12.70
2023-05-15T22:30:00.094Z,12.70
2023-05-15T22:32:27.379Z,12.70
2023-05-15T22:34:55.205Z,12.70
2023-05-15T22:37:22.528Z,12.70
2023-05-15T22:39:50.386Z,12.60
2023-05-15T22:42:19.254Z,12.60
2023-05-15T22:44:47.160Z,12.60
2023-05-15T22:47:14.437Z,12.60
2023-05-15T22:49:41.613Z,12.60
2023-05-15T22:52:09.070Z,12.60
2023-05-15T22:54:36.238Z,12.50
2023-05-15T22:57:03.687Z,12.50
2023-05-15T22:59:31.248Z,12.50
2023-05-15T23:01:58.867Z,12.60
2023-05-15T23:04:26.416Z,12.60
2023-05-15T23:06:53.758Z,12.60
2023-05-15T23:09:21.349Z,12.60
2023-05-15T23:11:48.689Z,12.60
2023-05-15T23:14:18.435Z,12.60
2023-05-15T23:16:46.759Z,12.60
2023-05-15T23:19:14.718Z,12.60
2023-05-15T23:21:42.139Z,12.50
2023-05-15T23:24:09.228Z,12.50
2023-05-15T23:26:36.371Z,12.50
2023-05-15T23:29:03.795Z,12.50
2023-05-15T23:31:31.069Z,12.50
2023-05-15T23:33:58.368Z,12.50
2023-05-15T23:36:25.569Z,12.50
2023-05-15T23:38:52.768Z,12.50
2023-05-15T23:41:20.108Z,12.50
2023-05-15T23:43:49.729Z,12.50
2023-05-15T23:46:17.840Z,12.50
2023-05-15T23:48:45.153Z,12.50
2023-05-15T23:51:12.488Z,12.30
2023-05-15T23:53:39.602Z,12.30
2023-05-15T23:56:07.256Z,12.30
2023-05-15T23:58:34.487Z,12.30
